sensor_id;sensor_type;location;lat;lon;timestamp;pressure;altitude;pressure_sealevel;temperature;humidity
41684;BME280;27369;52.030;4.586;2023-08-06T00:00:17;84304.13;;;-144.41;100.00
41684;BME280;27369;52.030;4.586;2023-08-06T00:02:42;84559.56;;;-144.41;100.00
41684;BME280;27369;52.030;4.586;2023-08-06T00:05:08;86859.47;;;-144.41;100.00
41684;BME280;27369;52.030;4.586;2023-08-06T00:07:33;86348.28;;;-144.41;100.00
41684;BME280;27369;52.030;4.586;2023-08-06T00:09:58;86348.28;;;-144.41;100.00
41684;BME280;27369;52.030;4.586;2023-08-06T00:12:24;89416.47;;;-144.41;100.00
41684;BME280;27369;52.030;4.586;2023-08-06T00:14:52;90183.88;;;-144.41;100.00
41684;BME280;27369;52.030;4.586;2023-08-06T00:17:18;92742.97;;;-144.41;100.00
41684;BME280;27369;52.030;4.586;2023-08-06T00:19:43;91975.06;;;-144.41;100.00
41684;BME280;27369;52.030;4.586;2023-08-06T00:22:08;91463.22;;;-144.41;100.00
41684;BME280;27369;52.030;4.586;2023-08-06T00:24:34;91975.06;;;-144.41;100.00
41684;BME280;27369;52.030;4.586;2023-08-06T00:26:59;92231.00;;;-144.41;100.00
41684;BME280;27369;52.030;4.586;2023-08-06T00:29:25;87370.75;;;-144.41;100.00
41684;BME280;27369;52.030;4.586;2023-08-06T00:31:50;86092.69;;;-144.41;100.00
41684;BME280;27369;52.030;4.586;2023-08-06T00:34:15;85581.59;;;-144.41;100.00
41684;BME280;27369;52.030;4.586;2023-08-06T00:36:40;85326.06;;;-144.41;100.00
41684;BME280;27369;52.030;4.586;2023-08-06T00:39:06;84815.06;;;-144.41;100.00
41684;BME280;27369;52.030;4.586;2023-08-06T00:41:32;84304.13;;;-144.41;100.00
41684;BME280;27369;52.030;4.586;2023-08-06T00:43:57;83793.25;;;-144.41;100.00
41684;BME280;27369;52.030;4.586;2023-08-06T00:46:22;84559.56;;;-144.41;100.00
41684;BME280;27369;52.030;4.586;2023-08-06T00:48:48;85581.59;;;-144.41;100.00
41684;BME280;27369;52.030;4.586;2023-08-06T00:51:15;86092.69;;;-144.41;100.00
41684;BME280;27369;52.030;4.586;2023-08-06T00:53:40;90439.69;;;-144.41;100.00
41684;BME280;27369;52.030;4.586;2023-08-06T00:56:06;91207.31;;;-144.41;100.00
41684;BME280;27369;52.030;4.586;2023-08-06T00:58:32;90951.41;;;-144.41;100.00
41684;BME280;27369;52.030;4.586;2023-08-06T01:00:57;90951.41;;;-144.41;100.00
41684;BME280;27369;52.030;4.586;2023-08-06T01:03:22;90951.41;;;-144.41;100.00
41684;BME280;27369;52.030;4.586;2023-08-06T01:05:48;94279.19;;;-144.41;100.00
41684;BME280;27369;52.030;4.586;2023-08-06T01:15:53;94535.28;;;-144.41;100.00
41684;BME280;27369;52.030;4.586;2023-08-06T01:18:20;94535.28;;;-144.41;100.00
41684;BME280;27369;52.030;4.586;2023-08-06T01:20:45;94535.28;;;-144.41;100.00
41684;BME280;27369;52.030;4.586;2023-08-06T01:23:11;94791.41;;;-144.41;100.00
41684;BME280;27369;52.030;4.586;2023-08-06T01:25:40;95303.66;;;-144.41;100.00
41684;BME280;27369;52.030;4.586;2023-08-06T01:28:11;95047.53;;;-144.41;100.00
41684;BME280;27369;52.030;4.586;2023-08-06T01:30:39;95303.66;;;-144.41;100.00
41684;BME280;27369;52.030;4.586;2023-08-06T01:33:06;95559.84;;;-144.41;100.00
41684;BME280;27369;52.030;4.586;2023-08-06T01:35:34;95303.66;;;-144.41;100.00
41684;BME280;27369;52.030;4.586;2023-08-06T01:38:00;95816.00;;;-144.41;100.00
41684;BME280;27369;52.030;4.586;2023-08-06T01:40:26;95816.00;;;-144.41;100.00
41684;BME280;27369;52.030;4.586;2023-08-06T01:42:53;96072.19;;;-144.41;100.00
41684;BME280;27369;52.030;4.586;2023-08-06T01:45:18;96584.63;;;-144.41;100.00
41684;BME280;27369;52.030;4.586;2023-08-06T01:47:44;96328.41;;;-144.41;100.00
41684;BME280;27369;52.030;4.586;2023-08-06T01:50:09;96584.63;;;-144.41;100.00
41684;BME280;27369;52.030;4.586;2023-08-06T01:52:34;96840.88;;;-144.41;100.00
41684;BME280;27369;52.030;4.586;2023-08-06T01:55:00;96840.88;;;-144.41;100.00
41684;BME280;27369;52.030;4.586;2023-08-06T01:57:25;98378.66;;;-144.41;100.00
41684;BME280;27369;52.030;4.586;2023-08-06T01:59:50;98378.66;;;-144.41;100.00
41684;BME280;27369;52.030;4.586;2023-08-06T02:02:15;99147.78;;;-144.41;100.00
41684;BME280;27369;52.030;4.586;2023-08-06T02:04:41;99404.19;;;-144.41;100.00
41684;BME280;27369;52.030;4.586;2023-08-06T02:07:06;99917.03;;;-144.41;100.00
41684;BME280;27369;52.030;4.586;2023-08-06T02:09:31;100429.97;;;-144.41;100.00
41684;BME280;27369;52.030;4.586;2023-08-06T02:11:57;100686.44;;;-144.41;100.00
41684;BME280;27369;52.030;4.586;2023-08-06T02:14:22;100942.94;;;-144.41;100.00
41684;BME280;27369;52.030;4.586;2023-08-06T02:16:47;100942.94;;;-144.41;100.00
41684;BME280;27369;52.030;4.586;2023-08-06T02:19:13;100942.94;;;-144.41;100.00
41684;BME280;27369;52.030;4.586;2023-08-06T02:21:39;101199.47;;;-144.41;100.00
41684;BME280;27369;52.030;4.586;2023-08-06T02:24:04;102482.31;;;-144.41;100.00
41684;BME280;27369;52.030;4.586;2023-08-06T02:26:29;102995.56;;;-144.41;100.00
41684;BME280;27369;52.030;4.586;2023-08-06T02:28:54;103765.53;;;-144.41;100.00
41684;BME280;27369;52.030;4.586;2023-08-06T02:31:20;104022.22;;;-144.41;100.00
41684;BME280;27369;52.030;4.586;2023-08-06T02:33:45;104022.22;;;-144.41;100.00
41684;BME280;27369;52.030;4.586;2023-08-06T02:36:10;104278.94;;;-144.41;100.00
41684;BME280;27369;52.030;4.586;2023-08-06T02:38:36;104278.94;;;-144.41;100.00
41684;BME280;27369;52.030;4.586;2023-08-06T02:41:04;104535.69;;;-144.41;100.00
41684;BME280;27369;52.030;4.586;2023-08-06T02:43:29;104792.41;;;-144.41;100.00
41684;BME280;27369;52.030;4.586;2023-08-06T02:46:01;105049.19;;;-144.41;100.00
41684;BME280;27369;52.030;4.586;2023-08-06T02:48:26;108647.53;;;-144.41;100.00
41684;BME280;27369;52.030;4.586;2023-08-06T02:50:52;108647.53;;;-144.41;100.00
41684;BME280;27369;52.030;4.586;2023-08-06T02:53:17;108647.53;;;-144.41;100.00
41684;BME280;27369;52.030;4.586;2023-08-06T02:55:46;108647.53;;;-144.41;100.00
41684;BME280;27369;52.030;4.586;2023-08-06T02:58:13;108647.53;;;-144.41;100.00
41684;BME280;27369;52.030;4.586;2023-08-06T03:00:38;108647.53;;;-144.41;100.00
41684;BME280;27369;52.030;4.586;2023-08-06T03:03:03;108647.53;;;-144.41;100.00
41684;BME280;27369;52.030;4.586;2023-08-06T03:05:28;108647.53;;;-144.41;100.00
41684;BME280;27369;52.030;4.586;2023-08-06T03:07:54;108647.53;;;-144.41;100.00
41684;BME280;27369;52.030;4.586;2023-08-06T03:10:19;108647.53;;;-144.41;100.00
41684;BME280;27369;52.030;4.586;2023-08-06T03:12:45;108647.53;;;-144.41;100.00
41684;BME280;27369;52.030;4.586;2023-08-06T03:15:10;108647.53;;;-144.41;100.00
41684;BME280;27369;52.030;4.586;2023-08-06T03:17:35;108647.53;;;-144.41;100.00
41684;BME280;27369;52.030;4.586;2023-08-06T03:20:01;108647.53;;;-144.41;100.00
41684;BME280;27369;52.030;4.586;2023-08-06T03:22:26;108647.53;;;-144.41;100.00
41684;BME280;27369;52.030;4.586;2023-08-06T03:24:51;108647.53;;;-144.41;100.00
41684;BME280;27369;52.030;4.586;2023-08-06T03:27:17;108647.53;;;-144.41;100.00
41684;BME280;27369;52.030;4.586;2023-08-06T03:29:42;108647.53;;;-144.41;100.00
41684;BME280;27369;52.030;4.586;2023-08-06T03:32:07;108647.53;;;-144.41;100.00
41684;BME280;27369;52.030;4.586;2023-08-06T03:34:32;108647.53;;;-144.41;100.00
41684;BME280;27369;52.030;4.586;2023-08-06T03:36:58;108647.53;;;-144.41;100.00
41684;BME280;27369;52.030;4.586;2023-08-06T03:39:23;108647.53;;;-144.41;100.00
41684;BME280;27369;52.030;4.586;2023-08-06T03:41:48;108647.53;;;-144.41;100.00
41684;BME280;27369;52.030;4.586;2023-08-06T03:44:14;108647.53;;;-144.41;100.00
41684;BME280;27369;52.030;4.586;2023-08-06T03:46:39;108647.53;;;-144.41;100.00
41684;BME280;27369;52.030;4.586;2023-08-06T03:49:04;108647.53;;;-144.41;100.00
41684;BME280;27369;52.030;4.586;2023-08-06T03:51:29;108647.53;;;-144.41;100.00
41684;BME280;27369;52.030;4.586;2023-08-06T03:53:55;108647.53;;;-144.41;100.00
41684;BME280;27369;52.030;4.586;2023-08-06T03:56:20;108647.53;;;-144.41;100.00
41684;BME280;27369;52.030;4.586;2023-08-06T03:58:45;108647.53;;;-144.41;100.00
41684;BME280;27369;52.030;4.586;2023-08-06T04:01:10;108647.53;;;-144.41;100.00
41684;BME280;27369;52.030;4.586;2023-08-06T04:03:36;108647.53;;;-144.41;100.00
41684;BME280;27369;52.030;4.586;2023-08-06T04:06:02;108647.53;;;-144.41;100.00
41684;BME280;27369;52.030;4.586;2023-08-06T04:08:27;108647.53;;;-144.41;100.00
41684;BME280;27369;52.030;4.586;2023-08-06T04:10:53;108647.53;;;-144.41;100.00
41684;BME280;27369;52.030;4.586;2023-08-06T04:13:18;108647.53;;;-144.41;100.00
41684;BME280;27369;52.030;4.586;2023-08-06T04:15:44;108647.53;;;-144.41;100.00
41684;BME280;27369;52.030;4.586;2023-08-06T04:18:09;108647.53;;;-144.41;100.00
41684;BME280;27369;52.030;4.586;2023-08-06T04:20:35;108647.53;;;-144.41;100.00
41684;BME280;27369;52.030;4.586;2023-08-06T04:23:05;108647.53;;;-144.41;100.00
41684;BME280;27369;52.030;4.586;2023-08-06T04:25:30;108647.53;;;-144.41;100.00
41684;BME280;27369;52.030;4.586;2023-08-06T04:27:56;108647.53;;;-144.41;100.00
41684;BME280;27369;52.030;4.586;2023-08-06T04:30:21;108647.53;;;-144.41;100.00
41684;BME280;27369;52.030;4.586;2023-08-06T04:32:46;108647.53;;;-144.41;100.00
41684;BME280;27369;52.030;4.586;2023-08-06T04:35:11;108647.53;;;-144.41;100.00
41684;BME280;27369;52.030;4.586;2023-08-06T04:37:37;108647.53;;;-144.41;100.00
41684;BME280;27369;52.030;4.586;2023-08-06T04:40:02;108647.53;;;-144.41;100.00
41684;BME280;27369;52.030;4.586;2023-08-06T04:42:27;108647.53;;;-144.41;100.00
41684;BME280;27369;52.030;4.586;2023-08-06T04:44:53;108647.53;;;-144.41;100.00
41684;BME280;27369;52.030;4.586;2023-08-06T04:47:18;108647.53;;;-144.41;100.00
41684;BME280;27369;52.030;4.586;2023-08-06T04:49:43;108647.53;;;-144.41;100.00
41684;BME280;27369;52.030;4.586;2023-08-06T04:52:09;108647.53;;;-144.41;100.00
41684;BME280;27369;52.030;4.586;2023-08-06T04:54:34;108647.53;;;-144.41;100.00
41684;BME280;27369;52.030;4.586;2023-08-06T04:56:59;108647.53;;;-144.41;100.00
41684;BME280;27369;52.030;4.586;2023-08-06T04:59:24;108647.53;;;-144.41;100.00
41684;BME280;27369;52.030;4.586;2023-08-06T05:01:50;108647.53;;;-144.41;100.00
41684;BME280;27369;52.030;4.586;2023-08-06T05:04:15;108647.53;;;-144.41;100.00
41684;BME280;27369;52.030;4.586;2023-08-06T05:06:40;108647.53;;;-144.41;100.00
41684;BME280;27369;52.030;4.586;2023-08-06T05:09:06;108647.53;;;-144.41;100.00
41684;BME280;27369;52.030;4.586;2023-08-06T05:11:31;108647.53;;;-144.41;100.00
41684;BME280;27369;52.030;4.586;2023-08-06T05:13:56;108647.53;;;-144.41;100.00
41684;BME280;27369;52.030;4.586;2023-08-06T05:16:22;108647.53;;;-144.41;100.00
41684;BME280;27369;52.030;4.586;2023-08-06T05:18:47;108647.53;;;-144.41;100.00
41684;BME280;27369;52.030;4.586;2023-08-06T05:21:13;108647.53;;;-144.41;100.00
41684;BME280;27369;52.030;4.586;2023-08-06T05:23:38;108647.53;;;-144.41;100.00
41684;BME280;27369;52.030;4.586;2023-08-06T05:26:03;108647.53;;;-144.41;100.00
41684;BME280;27369;52.030;4.586;2023-08-06T05:28:28;108647.53;;;-144.41;100.00
41684;BME280;27369;52.030;4.586;2023-08-06T05:30:54;108647.53;;;-144.41;100.00
41684;BME280;27369;52.030;4.586;2023-08-06T05:33:19;108647.53;;;-144.41;100.00
41684;BME280;27369;52.030;4.586;2023-08-06T05:35:44;108647.53;;;-144.41;100.00
41684;BME280;27369;52.030;4.586;2023-08-06T05:38:09;108647.53;;;-144.41;100.00
41684;BME280;27369;52.030;4.586;2023-08-06T05:40:35;108647.53;;;-144.41;100.00
41684;BME280;27369;52.030;4.586;2023-08-06T05:43:00;108647.53;;;-144.41;100.00
41684;BME280;27369;52.030;4.586;2023-08-06T05:45:26;108647.53;;;-144.41;100.00
41684;BME280;27369;52.030;4.586;2023-08-06T05:47:51;108647.53;;;-144.41;100.00
41684;BME280;27369;52.030;4.586;2023-08-06T05:50:18;108647.53;;;-144.41;100.00
41684;BME280;27369;52.030;4.586;2023-08-06T05:52:44;108647.53;;;-144.41;100.00
41684;BME280;27369;52.030;4.586;2023-08-06T05:55:09;108647.53;;;-144.41;100.00
41684;BME280;27369;52.030;4.586;2023-08-06T05:57:34;108647.53;;;-144.41;100.00
41684;BME280;27369;52.030;4.586;2023-08-06T06:00:00;108647.53;;;-144.41;100.00
41684;BME280;27369;52.030;4.586;2023-08-06T06:02:26;108647.53;;;-144.41;100.00
41684;BME280;27369;52.030;4.586;2023-08-06T06:04:51;108647.53;;;-144.41;100.00
41684;BME280;27369;52.030;4.586;2023-08-06T06:07:16;108647.53;;;-144.41;100.00
41684;BME280;27369;52.030;4.586;2023-08-06T06:09:42;108647.53;;;-144.41;100.00
41684;BME280;27369;52.030;4.586;2023-08-06T06:12:07;108647.53;;;-144.41;100.00
41684;BME280;27369;52.030;4.586;2023-08-06T06:14:32;108647.53;;;-144.41;100.00
41684;BME280;27369;52.030;4.586;2023-08-06T06:16:58;108647.53;;;-144.41;100.00
41684;BME280;27369;52.030;4.586;2023-08-06T06:19:24;108647.53;;;-144.41;100.00
41684;BME280;27369;52.030;4.586;2023-08-06T06:21:49;108647.53;;;-144.41;100.00
41684;BME280;27369;52.030;4.586;2023-08-06T06:24:14;108647.53;;;-144.41;100.00
41684;BME280;27369;52.030;4.586;2023-08-06T06:26:40;108647.53;;;-144.41;100.00
41684;BME280;27369;52.030;4.586;2023-08-06T06:29:05;108647.53;;;-144.41;100.00
41684;BME280;27369;52.030;4.586;2023-08-06T06:31:30;108647.53;;;-144.41;100.00
41684;BME280;27369;52.030;4.586;2023-08-06T06:33:56;108647.53;;;-144.41;100.00
41684;BME280;27369;52.030;4.586;2023-08-06T06:36:21;108647.53;;;-144.41;100.00
41684;BME280;27369;52.030;4.586;2023-08-06T06:38:46;108647.53;;;-144.41;100.00
41684;BME280;27369;52.030;4.586;2023-08-06T06:41:13;108647.53;;;-144.41;100.00
41684;BME280;27369;52.030;4.586;2023-08-06T06:43:38;108647.53;;;-144.41;100.00
41684;BME280;27369;52.030;4.586;2023-08-06T06:46:05;108647.53;;;-144.41;100.00
41684;BME280;27369;52.030;4.586;2023-08-06T06:48:31;108647.53;;;-144.41;100.00
41684;BME280;27369;52.030;4.586;2023-08-06T06:50:57;107103.84;;;-144.41;100.00
41684;BME280;27369;52.030;4.586;2023-08-06T06:53:22;101456.00;;;-144.41;100.00
41684;BME280;27369;52.030;4.586;2023-08-06T06:56:00;100429.97;;;-144.41;100.00
41684;BME280;27369;52.030;4.586;2023-08-06T06:58:26;99404.19;;;-144.41;100.00
41684;BME280;27369;52.030;4.586;2023-08-06T07:00:51;98891.41;;;-144.41;100.00
41684;BME280;27369;52.030;4.586;2023-08-06T07:03:16;98122.31;;;-144.41;100.00
41684;BME280;27369;52.030;4.586;2023-08-06T07:05:42;96840.88;;;-144.41;100.00
41684;BME280;27369;52.030;4.586;2023-08-06T07:08:08;95559.84;;;-144.41;100.00
41684;BME280;27369;52.030;4.586;2023-08-06T07:10:33;93767.03;;;-144.41;100.00
41684;BME280;27369;52.030;4.586;2023-08-06T07:12:58;90951.41;;;-144.41;100.00
41684;BME280;27369;52.030;4.586;2023-08-06T07:15:24;89928.03;;;-144.41;100.00
41684;BME280;27369;52.030;4.586;2023-08-06T07:17:49;89160.69;;;-144.41;100.00
41684;BME280;27369;52.030;4.586;2023-08-06T07:20:14;87115.09;;;-144.41;100.00
41684;BME280;27369;52.030;4.586;2023-08-06T07:22:40;85070.56;;;-144.41;100.00
41684;BME280;27369;52.030;4.586;2023-08-06T07:25:05;81239.81;;;-144.41;100.00
41684;BME280;27369;52.030;4.586;2023-08-06T07:27:31;80474.13;;;-144.41;100.00
41684;BME280;27369;52.030;4.586;2023-08-06T07:29:56;76392.81;;;-144.41;100.00
41684;BME280;27369;52.030;4.586;2023-08-06T07:32:23;74098.91;;;-144.41;100.00
41684;BME280;27369;52.030;4.586;2023-08-06T07:34:48;71806.31;;;-144.41;100.00
41684;BME280;27369;52.030;4.586;2023-08-06T07:37:14;67733.84;;;-144.41;100.00
41684;BME280;27369;52.030;4.586;2023-08-06T07:39:39;65190.66;;;-144.41;100.00
41684;BME280;27369;52.030;4.586;2023-08-06T07:42:06;59601.34;;;-144.41;100.00
41684;BME280;27369;52.030;4.586;2023-08-06T07:44:32;55541.31;;;-144.41;100.00
41684;BME280;27369;52.030;4.586;2023-08-06T07:46:57;51418.16;;;-144.41;100.00
41684;BME280;27369;52.030;4.586;2023-08-06T07:49:23;48644.06;;;-144.41;100.00
41684;BME280;27369;52.030;4.586;2023-08-06T07:51:48;44437.22;;;-144.41;100.00
41684;BME280;27369;52.030;4.586;2023-08-06T07:54:13;39508.56;;;-144.41;100.00
41684;BME280;27369;52.030;4.586;2023-08-06T07:56:39;29516.22;;;-144.41;100.00
41684;BME280;27369;52.030;4.586;2023-08-06T07:59:05;20796.25;;;-144.41;100.00
41684;BME280;27369;52.030;4.586;2023-08-06T08:01:30;16807.50;;;-144.41;100.00
41684;BME280;27369;52.030;4.586;2023-08-06T08:03:55;13595.16;;;-144.41;100.00
41684;BME280;27369;52.030;4.586;2023-08-06T08:06:20;12142.81;;;-144.41;100.00
41684;BME280;27369;52.030;4.586;2023-08-06T08:08:46;6010.19;;;-144.41;100.00
41684;BME280;27369;52.030;4.586;2023-08-06T08:11:11;-18.97;;;-144.41;100.00
41684;BME280;27369;52.030;4.586;2023-08-06T08:13:36;-3092.47;;;-144.41;100.00
41684;BME280;27369;52.030;4.586;2023-08-06T08:16:02;-8931.97;;;-144.41;100.00
41684;BME280;27369;52.030;4.586;2023-08-06T08:18:27;-11951.63;;;-144.41;100.00
41684;BME280;27369;52.030;4.586;2023-08-06T08:20:53;-16768.38;;;-144.41;100.00
41684;BME280;27369;52.030;4.586;2023-08-06T08:23:18;-18127.66;;;-144.41;100.00
41684;BME280;27369;52.030;4.586;2023-08-06T08:25:43;-19501.97;;;-144.41;100.00
41684;BME280;27369;52.030;4.586;2023-08-06T08:28:09;-20378.41;;;-144.41;100.00
41684;BME280;27369;52.030;4.586;2023-08-06T08:30:34;-20807.34;;;-144.41;100.00
41684;BME280;27369;52.030;4.586;2023-08-06T08:32:59;-20807.34;;;-144.41;100.00
41684;BME280;27369;52.030;4.586;2023-08-06T08:35:25;-20807.34;;;-144.41;100.00
41684;BME280;27369;52.030;4.586;2023-08-06T08:37:50;-20807.34;;;-144.41;100.00
41684;BME280;27369;52.030;4.586;2023-08-06T08:40:16;-20807.34;;;-144.41;100.00
41684;BME280;27369;52.030;4.586;2023-08-06T08:42:42;-20807.34;;;-144.41;100.00
41684;BME280;27369;52.030;4.586;2023-08-06T08:45:11;-20807.34;;;-144.41;100.00
41684;BME280;27369;52.030;4.586;2023-08-06T08:47:37;-20807.34;;;-144.41;100.00
41684;BME280;27369;52.030;4.586;2023-08-06T08:50:03;-20807.34;;;-144.41;100.00
41684;BME280;27369;52.030;4.586;2023-08-06T08:52:30;-20807.34;;;-144.41;100.00
41684;BME280;27369;52.030;4.586;2023-08-06T08:54:56;-20807.34;;;-144.41;100.00
41684;BME280;27369;52.030;4.586;2023-08-06T08:57:22;-20807.34;;;-144.41;100.00
41684;BME280;27369;52.030;4.586;2023-08-06T08:59:47;-20807.34;;;-144.41;100.00
41684;BME280;27369;52.030;4.586;2023-08-06T09:02:13;-20807.34;;;-144.41;100.00
41684;BME280;27369;52.030;4.586;2023-08-06T09:04:40;-20807.34;;;-144.41;100.00
41684;BME280;27369;52.030;4.586;2023-08-06T09:07:05;-20807.34;;;-144.41;100.00
41684;BME280;27369;52.030;4.586;2023-08-06T09:09:33;-20807.34;;;-144.41;100.00
41684;BME280;27369;52.030;4.586;2023-08-06T09:12:00;-20807.34;;;-144.41;100.00
41684;BME280;27369;52.030;4.586;2023-08-06T09:14:27;-20807.34;;;-144.41;100.00
41684;BME280;27369;52.030;4.586;2023-08-06T09:16:52;-20807.34;;;-144.41;100.00
41684;BME280;27369;52.030;4.586;2023-08-06T09:19:17;-20807.34;;;-144.41;100.00
41684;BME280;27369;52.030;4.586;2023-08-06T09:21:43;-20807.34;;;-144.41;100.00
41684;BME280;27369;52.030;4.586;2023-08-06T09:24:09;-20807.34;;;-144.41;100.00
41684;BME280;27369;52.030;4.586;2023-08-06T09:26:36;-20807.34;;;-144.41;100.00
41684;BME280;27369;52.030;4.586;2023-08-06T09:29:01;-20807.34;;;-144.41;100.00
41684;BME280;27369;52.030;4.586;2023-08-06T09:31:33;-20807.34;;;-144.41;100.00
41684;BME280;27369;52.030;4.586;2023-08-06T09:34:01;-20807.34;;;-144.41;100.00
41684;BME280;27369;52.030;4.586;2023-08-06T09:36:27;-20807.34;;;-144.41;100.00
41684;BME280;27369;52.030;4.586;2023-08-06T09:38:52;-20807.34;;;-144.41;100.00
41684;BME280;27369;52.030;4.586;2023-08-06T09:41:26;-20807.34;;;-144.41;100.00
41684;BME280;27369;52.030;4.586;2023-08-06T09:43:55;-20807.34;;;-144.41;100.00
41684;BME280;27369;52.030;4.586;2023-08-06T09:46:20;-20807.34;;;-144.41;100.00
41684;BME280;27369;52.030;4.586;2023-08-06T09:48:47;-20807.34;;;-144.41;100.00
41684;BME280;27369;52.030;4.586;2023-08-06T09:51:12;-20807.34;;;-144.41;100.00
41684;BME280;27369;52.030;4.586;2023-08-06T09:53:38;-20807.34;;;-144.41;100.00
41684;BME280;27369;52.030;4.586;2023-08-06T09:56:05;-20807.34;;;-144.41;100.00
41684;BME280;27369;52.030;4.586;2023-08-06T09:58:30;-20807.34;;;-144.41;100.00
41684;BME280;27369;52.030;4.586;2023-08-06T10:00:56;-20807.34;;;-144.41;100.00
41684;BME280;27369;52.030;4.586;2023-08-06T10:03:22;-20807.34;;;-144.41;100.00
41684;BME280;27369;52.030;4.586;2023-08-06T10:05:47;-20807.34;;;-144.41;100.00
41684;BME280;27369;52.030;4.586;2023-08-06T10:08:13;-20807.34;;;-144.41;100.00
41684;BME280;27369;52.030;4.586;2023-08-06T10:10:38;-20807.34;;;-144.41;100.00
41684;BME280;27369;52.030;4.586;2023-08-06T10:13:04;-20807.34;;;-144.41;100.00
41684;BME280;27369;52.030;4.586;2023-08-06T10:15:31;-20807.34;;;-144.41;100.00
41684;BME280;27369;52.030;4.586;2023-08-06T10:17:57;-20807.34;;;-144.41;100.00
41684;BME280;27369;52.030;4.586;2023-08-06T10:20:24;-20807.34;;;-144.41;100.00
41684;BME280;27369;52.030;4.586;2023-08-06T10:23:08;-20807.34;;;-144.41;100.00
41684;BME280;27369;52.030;4.586;2023-08-06T10:25:33;-20807.34;;;-144.41;100.00
41684;BME280;27369;52.030;4.586;2023-08-06T10:27:59;-20807.34;;;-144.41;100.00
41684;BME280;27369;52.030;4.586;2023-08-06T10:32:54;-20807.34;;;-144.41;100.00
41684;BME280;27369;52.030;4.586;2023-08-06T10:35:40;-20807.34;;;-144.41;100.00
41684;BME280;27369;52.030;4.586;2023-08-06T10:38:09;-20807.34;;;-144.41;100.00
41684;BME280;27369;52.030;4.586;2023-08-06T10:40:35;-20807.34;;;-144.41;100.00
41684;BME280;27369;52.030;4.586;2023-08-06T10:43:01;-20807.34;;;-144.41;100.00
41684;BME280;27369;52.030;4.586;2023-08-06T10:45:27;-20807.34;;;-144.41;100.00
41684;BME280;27369;52.030;4.586;2023-08-06T10:47:56;-20807.34;;;-144.41;100.00
41684;BME280;27369;52.030;4.586;2023-08-06T10:50:22;-20807.34;;;-144.41;100.00
41684;BME280;27369;52.030;4.586;2023-08-06T10:52:48;-20807.34;;;-144.41;100.00
41684;BME280;27369;52.030;4.586;2023-08-06T10:55:14;-20807.34;;;-144.41;100.00
41684;BME280;27369;52.030;4.586;2023-08-06T10:57:39;-20807.34;;;-144.41;100.00
41684;BME280;27369;52.030;4.586;2023-08-06T11:00:05;-20807.34;;;-144.41;100.00
41684;BME280;27369;52.030;4.586;2023-08-06T11:02:35;-20807.34;;;-144.41;100.00
41684;BME280;27369;52.030;4.586;2023-08-06T11:05:10;-20807.34;;;-144.41;100.00
41684;BME280;27369;52.030;4.586;2023-08-06T11:07:36;-20807.34;;;-144.41;100.00
41684;BME280;27369;52.030;4.586;2023-08-06T11:10:02;-20807.34;;;-144.41;100.00
41684;BME280;27369;52.030;4.586;2023-08-06T11:12:28;-20807.34;;;-144.41;100.00
41684;BME280;27369;52.030;4.586;2023-08-06T11:14:53;-20807.34;;;-144.41;100.00
41684;BME280;27369;52.030;4.586;2023-08-06T11:17:18;-20807.34;;;-144.41;100.00
41684;BME280;27369;52.030;4.586;2023-08-06T11:19:44;-20807.34;;;-144.41;100.00
41684;BME280;27369;52.030;4.586;2023-08-06T11:22:09;-20807.34;;;-144.41;100.00
41684;BME280;27369;52.030;4.586;2023-08-06T11:24:34;-20807.34;;;-144.41;100.00
41684;BME280;27369;52.030;4.586;2023-08-06T11:27:00;-20807.34;;;-144.41;100.00
41684;BME280;27369;52.030;4.586;2023-08-06T11:29:25;-20807.34;;;-144.41;100.00
41684;BME280;27369;52.030;4.586;2023-08-06T11:31:51;-20807.34;;;-144.41;100.00
41684;BME280;27369;52.030;4.586;2023-08-06T11:34:16;-20807.34;;;-144.41;100.00
41684;BME280;27369;52.030;4.586;2023-08-06T11:36:41;-20807.34;;;-144.41;100.00
41684;BME280;27369;52.030;4.586;2023-08-06T11:39:07;-20807.34;;;-144.41;100.00
41684;BME280;27369;52.030;4.586;2023-08-06T11:41:33;-20807.34;;;-144.41;100.00
41684;BME280;27369;52.030;4.586;2023-08-06T11:43:58;-20807.34;;;-144.41;100.00
41684;BME280;27369;52.030;4.586;2023-08-06T11:46:24;-20807.34;;;-144.41;100.00
41684;BME280;27369;52.030;4.586;2023-08-06T11:48:54;-20807.34;;;-144.41;100.00
41684;BME280;27369;52.030;4.586;2023-08-06T11:51:22;-20807.34;;;-144.41;100.00
41684;BME280;27369;52.030;4.586;2023-08-06T11:53:51;-20807.34;;;-144.41;100.00
41684;BME280;27369;52.030;4.586;2023-08-06T11:56:16;-20807.34;;;-144.41;100.00
41684;BME280;27369;52.030;4.586;2023-08-06T11:58:42;-20807.34;;;-144.41;100.00
41684;BME280;27369;52.030;4.586;2023-08-06T12:01:07;-20807.34;;;-144.41;100.00
41684;BME280;27369;52.030;4.586;2023-08-06T12:03:33;-20807.34;;;-144.41;100.00
41684;BME280;27369;52.030;4.586;2023-08-06T12:06:03;-20807.34;;;-144.41;100.00
41684;BME280;27369;52.030;4.586;2023-08-06T12:08:29;-20807.34;;;-144.41;100.00
41684;BME280;27369;52.030;4.586;2023-08-06T12:10:54;-20807.34;;;-144.41;100.00
41684;BME280;27369;52.030;4.586;2023-08-06T12:13:19;-20807.34;;;-144.41;100.00
41684;BME280;27369;52.030;4.586;2023-08-06T12:15:45;-20807.34;;;-144.41;100.00
41684;BME280;27369;52.030;4.586;2023-08-06T12:18:10;-20807.34;;;-144.41;100.00
41684;BME280;27369;52.030;4.586;2023-08-06T12:20:35;-20807.34;;;-144.41;100.00
41684;BME280;27369;52.030;4.586;2023-08-06T12:23:01;-20807.34;;;-144.41;100.00
41684;BME280;27369;52.030;4.586;2023-08-06T12:25:26;-20807.34;;;-144.41;100.00